AUR888P EGJB-LFRD
Flight info
| Callsign | AUR888P |
|---|---|
| Flight time | 0h 27m |
| Altitude | 9000 |
| Route | DIN |
| Aircraft | AT76/M-SDFGIRY/S |
Departure
| Time | 2026-04-21 11:27 |
|---|---|
| Airport | Guernsey Airport (EGJB) |
Arrival
| Time | 2026-04-21 11:55 |
|---|---|
| Airport | Dinard Pleurtuit Saint-Malo airport (LFRD) |
| Time | Latitude | Longitude | Altitude | Speed | Heading |
|---|---|---|---|---|---|
| 2026-04-21 11:13 | 49.43294 | -2.59511 | 324 ft | 0 kts | 178° |
| 2026-04-21 11:20 | 49.43297 | -2.59511 | 322 ft | 3 kts | 179° |
| 2026-04-21 11:20 | 49.43315 | -2.59511 | 325 ft | 4 kts | 178° |
| 2026-04-21 11:20 | 49.43351 | -2.59513 | 326 ft | 4 kts | 177° |
| 2026-04-21 11:20 | 49.43362 | -2.59514 | 327 ft | 0 kts | 177° |
| 2026-04-21 11:22 | 49.43360 | -2.59519 | 328 ft | 1 kts | 220° |
| 2026-04-21 11:23 | 49.43363 | -2.59569 | 325 ft | 10 kts | 272° |
| 2026-04-21 11:23 | 49.43359 | -2.59694 | 325 ft | 11 kts | 267° |
| 2026-04-21 11:23 | 49.43345 | -2.59840 | 321 ft | 18 kts | 268° |
| 2026-04-21 11:23 | 49.43339 | -2.60057 | 308 ft | 22 kts | 268° |
| 2026-04-21 11:24 | 49.43333 | -2.60291 | 292 ft | 23 kts | 267° |
| 2026-04-21 11:24 | 49.43326 | -2.60531 | 293 ft | 23 kts | 268° |
| 2026-04-21 11:24 | 49.43342 | -2.60732 | 296 ft | 19 kts | 280° |
| 2026-04-21 11:24 | 49.43364 | -2.60932 | 306 ft | 18 kts | 278° |
| 2026-04-21 11:25 | 49.43360 | -2.61121 | 308 ft | 18 kts | 267° |
| 2026-04-21 11:25 | 49.43368 | -2.61265 | 310 ft | 14 kts | 302° |
| 2026-04-21 11:25 | 49.43440 | -2.61359 | 312 ft | 12 kts | 355° |
| 2026-04-21 11:25 | 49.43466 | -2.61317 | 312 ft | 5 kts | 81° |
| 2026-04-21 11:26 | 49.43467 | -2.61299 | 312 ft | 0 kts | 88° |
| 2026-04-21 11:26 | 49.43468 | -2.61266 | 312 ft | 25 kts | 87° |
| 2026-04-21 11:27 | 49.43489 | -2.60519 | 311 ft | 107 kts | 88° |
| 2026-04-21 11:27 | 49.43512 | -2.59393 | 1073 ft | 103 kts | 85° |
| 2026-04-21 11:27 | 49.43532 | -2.58194 | 1834 ft | 113 kts | 83° |
| 2026-04-21 11:27 | 49.43606 | -2.56915 | 2275 ft | 131 kts | 83° |
| 2026-04-21 11:28 | 49.43700 | -2.55422 | 2714 ft | 145 kts | 85° |
| 2026-04-21 11:28 | 49.43764 | -2.53855 | 3320 ft | 149 kts | 86° |
| 2026-04-21 11:28 | 49.43819 | -2.52265 | 3894 ft | 153 kts | 87° |
| 2026-04-21 11:28 | 49.43534 | -2.50719 | 4379 ft | 161 kts | 130° |
| 2026-04-21 11:29 | 49.42449 | -2.50123 | 4949 ft | 178 kts | 172° |
| 2026-04-21 11:29 | 49.41198 | -2.50161 | 5485 ft | 181 kts | 174° |
| 2026-04-21 11:29 | 49.39930 | -2.50205 | 6017 ft | 185 kts | 177° |
| 2026-04-21 11:29 | 49.38638 | -2.50283 | 6556 ft | 187 kts | 179° |
| 2026-04-21 11:30 | 49.37330 | -2.50397 | 7067 ft | 189 kts | 180° |
| 2026-04-21 11:30 | 49.36009 | -2.50522 | 7570 ft | 191 kts | 180° |
| 2026-04-21 11:30 | 49.34676 | -2.50658 | 8063 ft | 193 kts | 179° |
| 2026-04-21 11:30 | 49.33327 | -2.50766 | 8567 ft | 194 kts | 178° |
| 2026-04-21 11:31 | 49.31975 | -2.50858 | 9093 ft | 193 kts | 180° |
| 2026-04-21 11:31 | 49.30583 | -2.50928 | 9196 ft | 215 kts | 180° |
| 2026-04-21 11:31 | 49.29013 | -2.51016 | 9195 ft | 235 kts | 179° |
| 2026-04-21 11:31 | 49.27335 | -2.51135 | 9190 ft | 247 kts | 180° |
| 2026-04-21 11:32 | 49.25585 | -2.51265 | 9185 ft | 255 kts | 180° |
| 2026-04-21 11:32 | 49.23790 | -2.51392 | 9184 ft | 260 kts | 181° |
| 2026-04-21 11:32 | 49.21970 | -2.51526 | 9180 ft | 263 kts | 181° |
| 2026-04-21 11:32 | 49.20132 | -2.51652 | 9178 ft | 265 kts | 181° |
| 2026-04-21 11:33 | 49.18283 | -2.51767 | 9184 ft | 266 kts | 181° |
| 2026-04-21 11:33 | 49.16451 | -2.51896 | 9183 ft | 267 kts | 180° |
| 2026-04-21 11:33 | 49.14593 | -2.52027 | 9181 ft | 267 kts | 180° |
| 2026-04-21 11:33 | 49.12734 | -2.52153 | 9177 ft | 268 kts | 180° |
| 2026-04-21 11:34 | 49.10868 | -2.52285 | 9174 ft | 266 kts | 178° |
| 2026-04-21 11:34 | 49.09105 | -2.51676 | 9179 ft | 259 kts | 154° |
| 2026-04-21 11:34 | 49.07510 | -2.50397 | 9178 ft | 259 kts | 148° |
| 2026-04-21 11:34 | 49.05987 | -2.48918 | 9176 ft | 259 kts | 143° |
| 2026-04-21 11:35 | 49.04523 | -2.47308 | 9171 ft | 259 kts | 141° |
| 2026-04-21 11:35 | 49.03073 | -2.45660 | 9174 ft | 259 kts | 141° |
| 2026-04-21 11:35 | 49.01634 | -2.44001 | 9173 ft | 260 kts | 140° |
| 2026-04-21 11:35 | 49.00194 | -2.42330 | 9176 ft | 260 kts | 140° |
| 2026-04-21 11:36 | 48.98917 | -2.40844 | 9177 ft | 260 kts | 141° |
| 2026-04-21 11:36 | 48.97504 | -2.39172 | 9175 ft | 260 kts | 140° |
| 2026-04-21 11:36 | 48.96074 | -2.37476 | 9169 ft | 261 kts | 141° |
| 2026-04-21 11:36 | 48.94650 | -2.35769 | 9171 ft | 261 kts | 140° |
| 2026-04-21 11:37 | 48.93221 | -2.34068 | 9176 ft | 260 kts | 140° |
| 2026-04-21 11:37 | 48.91786 | -2.32378 | 9175 ft | 261 kts | 140° |
| 2026-04-21 11:37 | 48.90353 | -2.30692 | 9171 ft | 261 kts | 141° |
| 2026-04-21 11:37 | 48.88921 | -2.28980 | 9165 ft | 262 kts | 140° |
| 2026-04-21 11:38 | 48.87494 | -2.27262 | 9162 ft | 262 kts | 140° |
| 2026-04-21 11:38 | 48.86064 | -2.25543 | 9164 ft | 262 kts | 140° |
| 2026-04-21 11:38 | 48.84632 | -2.23825 | 9155 ft | 262 kts | 140° |
| 2026-04-21 11:38 | 48.83194 | -2.22120 | 9157 ft | 262 kts | 140° |
| 2026-04-21 11:39 | 48.81759 | -2.20405 | 9158 ft | 262 kts | 140° |
| 2026-04-21 11:39 | 48.80317 | -2.18713 | 9149 ft | 262 kts | 140° |
| 2026-04-21 11:39 | 48.78877 | -2.17025 | 9143 ft | 262 kts | 141° |
| 2026-04-21 11:39 | 48.77441 | -2.15315 | 9140 ft | 262 kts | 141° |
| 2026-04-21 11:40 | 48.76025 | -2.13623 | 9149 ft | 262 kts | 140° |
| 2026-04-21 11:40 | 48.74592 | -2.11945 | 9115 ft | 253 kts | 141° |
| 2026-04-21 11:40 | 48.73231 | -2.10366 | 8900 ft | 242 kts | 140° |
| 2026-04-21 11:40 | 48.71904 | -2.08837 | 8663 ft | 236 kts | 140° |
| 2026-04-21 11:41 | 48.70608 | -2.07353 | 8431 ft | 231 kts | 140° |
| 2026-04-21 11:41 | 48.69329 | -2.05905 | 8190 ft | 228 kts | 140° |
| 2026-04-21 11:41 | 48.68057 | -2.04482 | 7883 ft | 226 kts | 141° |
| 2026-04-21 11:41 | 48.66811 | -2.03061 | 7576 ft | 223 kts | 141° |
| 2026-04-21 11:42 | 48.65577 | -2.01659 | 7275 ft | 220 kts | 139° |
| 2026-04-21 11:42 | 48.64345 | -2.00301 | 7000 ft | 218 kts | 140° |
| 2026-04-21 11:42 | 48.63246 | -1.99192 | 6739 ft | 214 kts | 149° |
| 2026-04-21 11:42 | 48.61807 | -1.98710 | 6457 ft | 216 kts | 166° |
| 2026-04-21 11:43 | 48.60320 | -1.98367 | 6124 ft | 216 kts | 165° |
| 2026-04-21 11:43 | 48.58838 | -1.97986 | 5864 ft | 216 kts | 165° |
| 2026-04-21 11:43 | 48.57356 | -1.97600 | 5586 ft | 216 kts | 165° |
| 2026-04-21 11:43 | 48.55879 | -1.97220 | 5320 ft | 214 kts | 165° |
| 2026-04-21 11:44 | 48.54409 | -1.96917 | 5071 ft | 212 kts | 166° |
| 2026-04-21 11:44 | 48.52957 | -1.96631 | 4812 ft | 209 kts | 166° |
| 2026-04-21 11:44 | 48.51517 | -1.96358 | 4605 ft | 208 kts | 166° |
| 2026-04-21 11:44 | 48.50087 | -1.96090 | 4333 ft | 207 kts | 166° |
| 2026-04-21 11:45 | 48.48686 | -1.95827 | 4192 ft | 205 kts | 166° |
| 2026-04-21 11:45 | 48.47248 | -1.95544 | 4078 ft | 212 kts | 166° |
| 2026-04-21 11:45 | 48.45776 | -1.95219 | 3916 ft | 215 kts | 165° |
| 2026-04-21 11:45 | 48.44285 | -1.94885 | 3740 ft | 218 kts | 165° |
| 2026-04-21 11:46 | 48.42777 | -1.94564 | 3570 ft | 220 kts | 165° |
| 2026-04-21 11:46 | 48.41270 | -1.94259 | 3407 ft | 217 kts | 166° |
| 2026-04-21 11:46 | 48.39779 | -1.94223 | 3246 ft | 220 kts | 188° |
| 2026-04-21 11:46 | 48.38369 | -1.95076 | 3120 ft | 215 kts | 200° |
| 2026-04-21 11:47 | 48.37191 | -1.96468 | 3057 ft | 217 kts | 219° |
| 2026-04-21 11:47 | 48.36151 | -1.98096 | 3043 ft | 215 kts | 231° |
| 2026-04-21 11:47 | 48.35729 | -2.00004 | 3000 ft | 220 kts | 269° |
| 2026-04-21 11:47 | 48.36106 | -2.02071 | 2849 ft | 209 kts | 308° |
| 2026-04-21 11:48 | 48.37189 | -2.03310 | 2695 ft | 186 kts | 350° |
| 2026-04-21 11:48 | 48.38390 | -2.03451 | 2741 ft | 163 kts | 6° |
| 2026-04-21 11:48 | 48.39487 | -2.03491 | 2762 ft | 151 kts | 6° |
| 2026-04-21 11:48 | 48.40489 | -2.03573 | 2836 ft | 133 kts | 6° |
| 2026-04-21 11:49 | 48.41350 | -2.03660 | 2687 ft | 122 kts | 5° |
| 2026-04-21 11:49 | 48.42176 | -2.03798 | 2551 ft | 117 kts | 4° |
| 2026-04-21 11:49 | 48.43002 | -2.03961 | 2517 ft | 122 kts | 2° |
| 2026-04-21 11:49 | 48.43851 | -2.04114 | 2407 ft | 123 kts | 4° |
| 2026-04-21 11:50 | 48.44697 | -2.04285 | 2282 ft | 122 kts | 1° |
| 2026-04-21 11:50 | 48.45525 | -2.04507 | 2228 ft | 121 kts | 0° |
| 2026-04-21 11:50 | 48.46338 | -2.04736 | 2178 ft | 115 kts | 0° |
| 2026-04-21 11:50 | 48.47113 | -2.04955 | 2118 ft | 112 kts | 1° |
| 2026-04-21 11:51 | 48.47863 | -2.05186 | 2052 ft | 109 kts | 1° |
| 2026-04-21 11:51 | 48.48604 | -2.05376 | 1984 ft | 109 kts | 2° |
| 2026-04-21 11:51 | 48.49350 | -2.05547 | 1873 ft | 107 kts | 2° |
| 2026-04-21 11:51 | 48.50069 | -2.05719 | 1820 ft | 103 kts | 1° |
| 2026-04-21 11:52 | 48.50783 | -2.05899 | 1706 ft | 106 kts | 1° |
| 2026-04-21 11:52 | 48.51537 | -2.06086 | 1648 ft | 115 kts | 0° |
| 2026-04-21 11:52 | 48.52306 | -2.06275 | 1555 ft | 111 kts | 3° |
| 2026-04-21 11:52 | 48.53049 | -2.06451 | 1394 ft | 106 kts | 2° |
| 2026-04-21 11:53 | 48.53758 | -2.06656 | 1178 ft | 104 kts | 1° |
| 2026-04-21 11:53 | 48.54464 | -2.06879 | 1003 ft | 104 kts | 2° |
| 2026-04-21 11:53 | 48.55179 | -2.07043 | 838 ft | 104 kts | 359° |
| 2026-04-21 11:53 | 48.55916 | -2.07258 | 677 ft | 107 kts | 355° |
| 2026-04-21 11:54 | 48.56671 | -2.07457 | 566 ft | 106 kts | 1° |
| 2026-04-21 11:54 | 48.57365 | -2.07624 | 367 ft | 99 kts | 4° |
| 2026-04-21 11:54 | 48.58023 | -2.07805 | 249 ft | 94 kts | 0° |
| 2026-04-21 11:54 | 48.58572 | -2.07941 | 227 ft | 63 kts | 346° |
| 2026-04-21 11:55 | 48.58904 | -2.08030 | 226 ft | 36 kts | 348° |
| 2026-04-21 11:55 | 48.59096 | -2.08080 | 227 ft | 22 kts | 351° |
| 2026-04-21 11:55 | 48.59186 | -2.08043 | 225 ft | 9 kts | 63° |
| 2026-04-21 11:55 | 48.59196 | -2.07994 | 226 ft | 4 kts | 81° |
| 2026-04-21 11:56 | 48.59208 | -2.07890 | 226 ft | 13 kts | 83° |
| 2026-04-21 11:56 | 48.59165 | -2.07826 | 226 ft | 11 kts | 170° |
| 2026-04-21 11:56 | 48.59082 | -2.07805 | 226 ft | 11 kts | 171° |
| 2026-04-21 11:56 | 48.59063 | -2.07782 | 227 ft | 4 kts | 100° |
| 2026-04-21 11:57 | 48.59067 | -2.07733 | 226 ft | 5 kts | 81° |
| 2026-04-21 11:57 | 48.59060 | -2.07722 | 226 ft | 2 kts | 167° |
| 2026-04-21 11:57 | 48.59045 | -2.07744 | 228 ft | 3 kts | 239° |
| 2026-04-21 11:57 | 48.59045 | -2.07745 | 228 ft | 0 kts | 239° |